sensor_id;sensor_type;location;lat;lon;timestamp;pressure;altitude;pressure_sealevel;temperature;humidity
68193;BME280;55012;47.562;18.414;2024-02-28T00:00:04;99454.03;;;10.22;100.00
68193;BME280;55012;47.562;18.414;2024-02-28T00:02:29;99456.16;;;10.16;100.00
68193;BME280;55012;47.562;18.414;2024-02-28T00:04:55;99467.22;;;10.11;100.00
68193;BME280;55012;47.562;18.414;2024-02-28T00:07:23;99480.25;;;10.09;100.00
68193;BME280;55012;47.562;18.414;2024-02-28T00:09:49;99494.09;;;10.07;100.00
68193;BME280;55012;47.562;18.414;2024-02-28T00:12:14;99502.22;;;10.07;100.00
68193;BME280;55012;47.562;18.414;2024-02-28T00:14:40;99504.47;;;10.05;100.00
68193;BME280;55012;47.562;18.414;2024-02-28T00:17:05;99517.53;;;10.03;100.00
68193;BME280;55012;47.562;18.414;2024-02-28T00:19:31;99523.72;;;10.04;100.00
68193;BME280;55012;47.562;18.414;2024-02-28T00:21:56;99516.06;;;10.06;100.00
68193;BME280;55012;47.562;18.414;2024-02-28T00:24:21;99514.59;;;10.08;100.00
68193;BME280;55012;47.562;18.414;2024-02-28T00:26:47;99508.88;;;10.10;100.00
68193;BME280;55012;47.562;18.414;2024-02-28T00:29:12;99513.63;;;10.13;100.00
68193;BME280;55012;47.562;18.414;2024-02-28T00:31:37;99499.75;;;10.14;100.00
68193;BME280;55012;47.562;18.414;2024-02-28T00:34:03;99497.97;;;10.19;100.00
68193;BME280;55012;47.562;18.414;2024-02-28T00:36:28;99487.59;;;10.21;100.00
68193;BME280;55012;47.562;18.414;2024-02-28T00:38:53;99482.00;;;10.26;100.00
68193;BME280;55012;47.562;18.414;2024-02-28T00:41:19;99467.03;;;10.28;100.00
68193;BME280;55012;47.562;18.414;2024-02-28T00:43:44;99446.63;;;10.31;100.00
68193;BME280;55012;47.562;18.414;2024-02-28T00:46:10;99435.59;;;10.36;100.00
68193;BME280;55012;47.562;18.414;2024-02-28T00:48:36;99428.38;;;10.40;100.00
68193;BME280;55012;47.562;18.414;2024-02-28T00:51:02;99421.06;;;10.40;100.00
68193;BME280;55012;47.562;18.414;2024-02-28T00:53:28;99409.56;;;10.44;100.00
68193;BME280;55012;47.562;18.414;2024-02-28T00:55:53;99407.31;;;10.46;100.00
68193;BME280;55012;47.562;18.414;2024-02-28T00:58:20;99398.41;;;10.45;100.00
68193;BME280;55012;47.562;18.414;2024-02-28T01:00:46;99396.38;;;10.42;100.00
68193;BME280;55012;47.562;18.414;2024-02-28T01:03:11;99393.66;;;10.42;100.00
68193;BME280;55012;47.562;18.414;2024-02-28T01:05:39;99385.88;;;10.40;100.00
68193;BME280;55012;47.562;18.414;2024-02-28T01:08:05;99386.59;;;10.37;100.00
68193;BME280;55012;47.562;18.414;2024-02-28T01:10:31;99392.78;;;10.38;100.00
68193;BME280;55012;47.562;18.414;2024-02-28T01:12:57;99397.06;;;10.39;100.00
68193;BME280;55012;47.562;18.414;2024-02-28T01:15:22;99405.59;;;10.41;100.00
68193;BME280;55012;47.562;18.414;2024-02-28T01:17:48;99405.50;;;10.37;100.00
68193;BME280;55012;47.562;18.414;2024-02-28T01:20:13;99412.94;;;10.40;100.00
68193;BME280;55012;47.562;18.414;2024-02-28T01:22:39;99404.81;;;10.40;100.00
68193;BME280;55012;47.562;18.414;2024-02-28T01:25:05;99401.34;;;10.40;100.00
68193;BME280;55012;47.562;18.414;2024-02-28T01:27:31;99395.94;;;10.40;100.00
68193;BME280;55012;47.562;18.414;2024-02-28T01:29:56;99399.06;;;10.42;100.00
68193;BME280;55012;47.562;18.414;2024-02-28T01:32:22;99385.88;;;10.40;100.00
68193;BME280;55012;47.562;18.414;2024-02-28T01:34:47;99387.94;;;10.44;100.00
68193;BME280;55012;47.562;18.414;2024-02-28T01:37:13;99382.97;;;10.46;100.00
68193;BME280;55012;47.562;18.414;2024-02-28T01:39:38;99370.22;;;10.46;100.00
68193;BME280;55012;47.562;18.414;2024-02-28T01:42:03;99369.09;;;10.47;100.00
68193;BME280;55012;47.562;18.414;2024-02-28T01:44:29;99369.88;;;10.48;100.00
68193;BME280;55012;47.562;18.414;2024-02-28T01:46:54;99363.69;;;10.47;100.00
68193;BME280;55012;47.562;18.414;2024-02-28T01:49:22;99366.41;;;10.47;100.00
68193;BME280;55012;47.562;18.414;2024-02-28T01:51:49;99360.53;;;10.45;100.00
68193;BME280;55012;47.562;18.414;2024-02-28T01:54:15;99372.03;;;10.42;100.00
68193;BME280;55012;47.562;18.414;2024-02-28T01:56:41;99366.97;;;10.40;100.00
68193;BME280;55012;47.562;18.414;2024-02-28T01:59:07;99373.50;;;10.39;100.00
68193;BME280;55012;47.562;18.414;2024-02-28T02:01:34;99371.50;;;10.36;100.00
68193;BME280;55012;47.562;18.414;2024-02-28T02:04:01;99389.06;;;10.43;100.00
68193;BME280;55012;47.562;18.414;2024-02-28T02:06:26;99386.47;;;10.46;100.00
68193;BME280;55012;47.562;18.414;2024-02-28T02:08:52;99392.31;;;10.48;100.00
68193;BME280;55012;47.562;18.414;2024-02-28T02:11:17;99378.78;;;10.48;100.00
68193;BME280;55012;47.562;18.414;2024-02-28T02:16:15;99371.13;;;10.50;100.00
68193;BME280;55012;47.562;18.414;2024-02-28T02:18:40;99364.91;;;10.50;100.00
68193;BME280;55012;47.562;18.414;2024-02-28T02:21:06;99362.13;;;10.46;100.00
68193;BME280;55012;47.562;18.414;2024-02-28T02:23:33;99363.25;;;10.45;100.00
68193;BME280;55012;47.562;18.414;2024-02-28T02:25:58;99368.31;;;10.47;100.00
68193;BME280;55012;47.562;18.414;2024-02-28T02:28:24;99373.72;;;10.47;100.00
68193;BME280;55012;47.562;18.414;2024-02-28T02:30:49;99373.72;;;10.47;100.00
68193;BME280;55012;47.562;18.414;2024-02-28T02:33:14;99380.00;;;10.51;100.00
68193;BME280;55012;47.562;18.414;2024-02-28T02:35:40;99379.34;;;10.54;100.00
68193;BME280;55012;47.562;18.414;2024-02-28T02:38:05;99380.56;;;10.56;100.00
68193;BME280;55012;47.562;18.414;2024-02-28T02:40:30;99371.31;;;10.57;100.00
68193;BME280;55012;47.562;18.414;2024-02-28T02:42:56;99374.81;;;10.58;100.00
68193;BME280;55012;47.562;18.414;2024-02-28T02:45:21;99371.44;;;10.61;100.00
68193;BME280;55012;47.562;18.414;2024-02-28T02:47:46;99350.03;;;10.56;100.00
68193;BME280;55012;47.562;18.414;2024-02-28T02:50:12;99356.59;;;10.55;100.00
68193;BME280;55012;47.562;18.414;2024-02-28T02:52:37;99347.91;;;10.49;100.00
68193;BME280;55012;47.562;18.414;2024-02-28T02:55:03;99365.16;;;10.45;100.00
68193;BME280;55012;47.562;18.414;2024-02-28T02:57:29;99392.22;;;10.45;100.00
68193;BME280;55012;47.562;18.414;2024-02-28T02:59:57;99401.47;;;10.44;100.00
68193;BME280;55012;47.562;18.414;2024-02-28T03:02:23;99399.41;;;10.40;100.00
68193;BME280;55012;47.562;18.414;2024-02-28T03:04:48;99409.44;;;10.40;100.00
68193;BME280;55012;47.562;18.414;2024-02-28T03:07:13;99416.19;;;10.34;100.00
68193;BME280;55012;47.562;18.414;2024-02-28T03:09:39;99430.06;;;10.32;100.00
68193;BME280;55012;47.562;18.414;2024-02-28T03:12:05;99443.69;;;10.24;100.00
68193;BME280;55012;47.562;18.414;2024-02-28T03:14:30;99455.38;;;10.16;100.00
68193;BME280;55012;47.562;18.414;2024-02-28T03:16:56;99478.03;;;10.11;100.00
68193;BME280;55012;47.562;18.414;2024-02-28T03:19:22;99492.53;;;10.06;100.00
68193;BME280;55012;47.562;18.414;2024-02-28T03:21:47;99515.28;;;10.05;100.00
68193;BME280;55012;47.562;18.414;2024-02-28T03:24:12;99524.50;;;10.04;100.00
68193;BME280;55012;47.562;18.414;2024-02-28T03:26:38;99537.25;;;10.04;100.00
68193;BME280;55012;47.562;18.414;2024-02-28T03:29:03;99553.47;;;10.04;100.00
68193;BME280;55012;47.562;18.414;2024-02-28T03:31:29;99567.75;;;10.04;100.00
68193;BME280;55012;47.562;18.414;2024-02-28T03:33:54;99572.84;;;10.06;100.00
68193;BME280;55012;47.562;18.414;2024-02-28T03:36:20;99569.69;;;10.04;100.00
68193;BME280;55012;47.562;18.414;2024-02-28T03:38:45;99583.84;;;10.01;100.00
68193;BME280;55012;47.562;18.414;2024-02-28T03:41:11;99587.81;;;10.03;100.00
68193;BME280;55012;47.562;18.414;2024-02-28T03:43:36;99595.13;;;10.03;100.00
68193;BME280;55012;47.562;18.414;2024-02-28T03:46:02;99601.31;;;10.03;100.00
68193;BME280;55012;47.562;18.414;2024-02-28T03:48:27;99606.72;;;10.03;100.00
68193;BME280;55012;47.562;18.414;2024-02-28T03:50:53;99603.25;;;10.03;100.00
68193;BME280;55012;47.562;18.414;2024-02-28T03:53:18;99606.28;;;10.01;100.00
68193;BME280;55012;47.562;18.414;2024-02-28T03:55:43;99603.75;;;9.96;100.00
68193;BME280;55012;47.562;18.414;2024-02-28T03:58:09;99612.84;;;9.92;100.00
68193;BME280;55012;47.562;18.414;2024-02-28T04:00:35;99633.91;;;9.86;100.00
68193;BME280;55012;47.562;18.414;2024-02-28T04:03:01;99652.66;;;9.82;100.00
68193;BME280;55012;47.562;18.414;2024-02-28T04:05:28;99668.88;;;9.82;100.00
68193;BME280;55012;47.562;18.414;2024-02-28T04:07:53;99680.81;;;9.81;100.00
68193;BME280;55012;47.562;18.414;2024-02-28T04:10:18;99687.66;;;9.79;100.00
68193;BME280;55012;47.562;18.414;2024-02-28T04:12:44;99692.28;;;9.78;100.00
68193;BME280;55012;47.562;18.414;2024-02-28T04:15:13;99694.53;;;9.76;100.00
68193;BME280;55012;47.562;18.414;2024-02-28T04:17:39;99700.72;;;9.77;100.00
68193;BME280;55012;47.562;18.414;2024-02-28T04:20:11;99712.63;;;9.76;100.00
68193;BME280;55012;47.562;18.414;2024-02-28T04:22:37;99718.69;;;9.73;100.00
68193;BME280;55012;47.562;18.414;2024-02-28T04:25:07;99723.31;;;9.72;100.00
68193;BME280;55012;47.562;18.414;2024-02-28T04:27:33;99717.28;;;9.67;100.00
68193;BME280;55012;47.562;18.414;2024-02-28T04:29:58;99723.47;;;9.67;100.00
68193;BME280;55012;47.562;18.414;2024-02-28T04:32:24;99730.34;;;9.65;100.00
68193;BME280;55012;47.562;18.414;2024-02-28T04:34:49;99736.88;;;9.64;100.00
68193;BME280;55012;47.562;18.414;2024-02-28T04:37:14;99747.53;;;9.60;100.00
68193;BME280;55012;47.562;18.414;2024-02-28T04:39:40;99763.59;;;9.56;100.00
68193;BME280;55012;47.562;18.414;2024-02-28T04:42:05;99779.34;;;9.54;100.00
68193;BME280;55012;47.562;18.414;2024-02-28T04:44:31;99793.47;;;9.51;100.00
68193;BME280;55012;47.562;18.414;2024-02-28T04:46:56;99813.97;;;9.52;100.00
68193;BME280;55012;47.562;18.414;2024-02-28T04:49:22;99830.03;;;9.49;100.00
68193;BME280;55012;47.562;18.414;2024-02-28T04:51:48;99835.75;;;9.47;100.00
68193;BME280;55012;47.562;18.414;2024-02-28T04:54:13;99853.88;;;9.47;100.00
68193;BME280;55012;47.562;18.414;2024-02-28T04:56:40;99862.63;;;9.44;100.00
68193;BME280;55012;47.562;18.414;2024-02-28T04:59:06;99867.38;;;9.38;100.00
68193;BME280;55012;47.562;18.414;2024-02-28T05:01:32;99872.63;;;9.35;100.00
68193;BME280;55012;47.562;18.414;2024-02-28T05:03:57;99883.94;;;9.28;100.00
68193;BME280;55012;47.562;18.414;2024-02-28T05:06:22;99893.94;;;9.27;100.00
68193;BME280;55012;47.562;18.414;2024-02-28T05:08:48;99907.25;;;9.24;100.00
68193;BME280;55012;47.562;18.414;2024-02-28T05:11:13;99907.75;;;9.17;100.00
68193;BME280;55012;47.562;18.414;2024-02-28T05:13:38;99923.78;;;9.14;100.00
68193;BME280;55012;47.562;18.414;2024-02-28T05:16:04;99936.19;;;9.06;100.00
68193;BME280;55012;47.562;18.414;2024-02-28T05:18:29;99950.78;;;9.05;100.00
68193;BME280;55012;47.562;18.414;2024-02-28T05:20:54;99961.41;;;9.01;100.00
68193;BME280;55012;47.562;18.414;2024-02-28T05:23:20;99974.59;;;9.03;100.00
68193;BME280;55012;47.562;18.414;2024-02-28T05:25:46;99986.50;;;9.02;100.00
68193;BME280;55012;47.562;18.414;2024-02-28T05:28:11;99990.63;;;8.99;100.00
68193;BME280;55012;47.562;18.414;2024-02-28T05:30:37;99997.91;;;8.99;100.00
68193;BME280;55012;47.562;18.414;2024-02-28T05:33:02;100004.75;;;8.96;100.00
68193;BME280;55012;47.562;18.414;2024-02-28T05:35:28;100007.78;;;8.95;100.00
68193;BME280;55012;47.562;18.414;2024-02-28T05:37:53;100026.94;;;8.93;100.00
68193;BME280;55012;47.562;18.414;2024-02-28T05:40:21;100026.78;;;8.90;100.00
68193;BME280;55012;47.562;18.414;2024-02-28T05:42:47;100024.22;;;8.85;100.00
68193;BME280;55012;47.562;18.414;2024-02-28T05:45:12;100024.22;;;8.85;100.00
68193;BME280;55012;47.562;18.414;2024-02-28T05:47:37;100040.75;;;8.83;100.00
68193;BME280;55012;47.562;18.414;2024-02-28T05:50:04;100027.41;;;8.78;100.00
68193;BME280;55012;47.562;18.414;2024-02-28T05:52:30;100033.28;;;8.80;100.00
68193;BME280;55012;47.562;18.414;2024-02-28T05:54:55;100040.25;;;8.81;100.00
68193;BME280;55012;47.562;18.414;2024-02-28T05:57:21;100042.16;;;8.81;100.00
68193;BME280;55012;47.562;18.414;2024-02-28T05:59:46;100047.56;;;8.81;100.00
68193;BME280;55012;47.562;18.414;2024-02-28T06:02:11;100049.78;;;8.79;100.00
68193;BME280;55012;47.562;18.414;2024-02-28T06:04:37;100055.19;;;8.79;100.00
68193;BME280;55012;47.562;18.414;2024-02-28T06:07:02;100061.84;;;8.81;100.00
68193;BME280;55012;47.562;18.414;2024-02-28T06:09:28;100056.13;;;8.83;100.00
68193;BME280;55012;47.562;18.414;2024-02-28T06:11:53;100058.22;;;8.86;100.00
68193;BME280;55012;47.562;18.414;2024-02-28T06:14:18;100053.31;;;8.88;100.00
68193;BME280;55012;47.562;18.414;2024-02-28T06:16:47;100049.34;;;8.94;100.00
68193;BME280;55012;47.562;18.414;2024-02-28T06:19:12;100050.63;;;8.96;100.00
68193;BME280;55012;47.562;18.414;2024-02-28T06:21:37;100045.88;;;9.02;100.00
68193;BME280;55012;47.562;18.414;2024-02-28T06:24:03;100045.41;;;9.09;100.00
68193;BME280;55012;47.562;18.414;2024-02-28T06:26:29;100034.16;;;9.15;100.00
68193;BME280;55012;47.562;18.414;2024-02-28T06:28:56;100030.66;;;9.23;100.00
68193;BME280;55012;47.562;18.414;2024-02-28T06:31:26;100015.25;;;9.33;100.00
68193;BME280;55012;47.562;18.414;2024-02-28T06:33:52;99990.34;;;9.36;100.00
68193;BME280;55012;47.562;18.414;2024-02-28T06:36:17;99989.84;;;9.51;100.00
68193;BME280;55012;47.562;18.414;2024-02-28T06:38:43;99976.66;;;9.58;100.00
68193;BME280;55012;47.562;18.414;2024-02-28T06:41:08;99944.53;;;9.65;100.00
68193;BME280;55012;47.562;18.414;2024-02-28T06:43:35;99922.91;;;9.74;100.00
68193;BME280;55012;47.562;18.414;2024-02-28T06:46:01;99909.38;;;9.82;100.00
68193;BME280;55012;47.562;18.414;2024-02-28T06:48:27;99889.16;;;9.89;100.00
68193;BME280;55012;47.562;18.414;2024-02-28T06:50:53;99863.41;;;9.91;100.00
68193;BME280;55012;47.562;18.414;2024-02-28T06:53:18;99845.22;;;10.00;100.00
68193;BME280;55012;47.562;18.414;2024-02-28T06:55:43;99839.47;;;10.10;100.00
68193;BME280;55012;47.562;18.414;2024-02-28T06:58:10;99806.97;;;10.19;100.00
68193;BME280;55012;47.562;18.414;2024-02-28T07:00:36;99787.00;;;10.32;100.00
68193;BME280;55012;47.562;18.414;2024-02-28T07:03:01;99762.09;;;10.48;100.00
68193;BME280;55012;47.562;18.414;2024-02-28T07:05:26;99716.47;;;10.58;100.00
68193;BME280;55012;47.562;18.414;2024-02-28T07:07:52;99679.22;;;10.76;100.00
68193;BME280;55012;47.562;18.414;2024-02-28T07:10:17;99614.63;;;10.87;100.00
68193;BME280;55012;47.562;18.414;2024-02-28T07:12:42;99557.34;;;10.97;100.00
68193;BME280;55012;47.562;18.414;2024-02-28T07:15:08;99511.09;;;11.02;100.00
68193;BME280;55012;47.562;18.414;2024-02-28T07:17:33;99494.25;;;11.09;100.00
68193;BME280;55012;47.562;18.414;2024-02-28T07:19:59;99471.94;;;11.12;100.00
68193;BME280;55012;47.562;18.414;2024-02-28T07:22:24;99448.56;;;11.07;100.00
68193;BME280;55012;47.562;18.414;2024-02-28T07:24:50;99439.00;;;11.10;100.00
68193;BME280;55012;47.562;18.414;2024-02-28T07:27:15;99418.34;;;11.05;100.00
68193;BME280;55012;47.562;18.414;2024-02-28T07:29:41;99417.69;;;10.96;100.00
68193;BME280;55012;47.562;18.414;2024-02-28T07:32:06;99421.28;;;11.00;100.00
68193;BME280;55012;47.562;18.414;2024-02-28T07:34:32;99435.16;;;11.11;100.00
68193;BME280;55012;47.562;18.414;2024-02-28T07:36:59;99435.75;;;11.32;100.00
68193;BME280;55012;47.562;18.414;2024-02-28T07:39:24;99430.38;;;11.48;100.00
68193;BME280;55012;47.562;18.414;2024-02-28T07:41:50;99400.25;;;11.65;100.00
68193;BME280;55012;47.562;18.414;2024-02-28T07:44:16;99376.94;;;11.76;100.00
68193;BME280;55012;47.562;18.414;2024-02-28T07:46:41;99355.63;;;11.91;100.00
68193;BME280;55012;47.562;18.414;2024-02-28T07:49:07;99331.56;;;12.05;100.00
68193;BME280;55012;47.562;18.414;2024-02-28T07:51:33;99307.13;;;12.21;100.00
68193;BME280;55012;47.562;18.414;2024-02-28T07:53:58;99285.75;;;12.35;100.00
68193;BME280;55012;47.562;18.414;2024-02-28T07:56:24;99253.97;;;12.35;100.00
68193;BME280;55012;47.562;18.414;2024-02-28T07:58:49;99238.19;;;12.41;100.00
68193;BME280;55012;47.562;18.414;2024-02-28T08:01:15;99215.59;;;12.33;100.00
68193;BME280;55012;47.562;18.414;2024-02-28T08:03:42;99213.09;;;12.25;100.00
68193;BME280;55012;47.562;18.414;2024-02-28T08:06:07;99215.84;;;12.09;100.00
68193;BME280;55012;47.562;18.414;2024-02-28T08:08:34;99215.59;;;11.98;100.00
68193;BME280;55012;47.562;18.414;2024-02-28T08:11:00;99231.22;;;11.86;100.00
68193;BME280;55012;47.562;18.414;2024-02-28T08:13:25;99241.16;;;11.81;100.00
68193;BME280;55012;47.562;18.414;2024-02-28T08:15:53;99253.84;;;11.77;100.00
68193;BME280;55012;47.562;18.414;2024-02-28T08:18:19;99262.31;;;11.76;100.00
68193;BME280;55012;47.562;18.414;2024-02-28T08:20:45;99267.81;;;11.79;100.00
68193;BME280;55012;47.562;18.414;2024-02-28T08:23:10;99280.59;;;11.79;100.00
68193;BME280;55012;47.562;18.414;2024-02-28T08:25:35;99280.16;;;11.77;100.00
68193;BME280;55012;47.562;18.414;2024-02-28T08:28:01;99276.66;;;11.76;100.00
68193;BME280;55012;47.562;18.414;2024-02-28T08:30:26;99276.41;;;11.81;100.00
68193;BME280;55012;47.562;18.414;2024-02-28T08:32:51;99281.63;;;11.90;100.00
68193;BME280;55012;47.562;18.414;2024-02-28T08:35:20;99279.88;;;11.98;100.00
68193;BME280;55012;47.562;18.414;2024-02-28T08:37:45;99271.91;;;12.05;100.00
68193;BME280;55012;47.562;18.414;2024-02-28T08:40:11;99258.09;;;12.10;100.00
68193;BME280;55012;47.562;18.414;2024-02-28T08:42:38;99255.88;;;12.16;100.00
68193;BME280;55012;47.562;18.414;2024-02-28T08:45:03;99249.41;;;12.20;100.00
68193;BME280;55012;47.562;18.414;2024-02-28T08:47:31;99244.13;;;12.27;100.00
68193;BME280;55012;47.562;18.414;2024-02-28T08:49:56;99233.69;;;12.29;100.00
68193;BME280;55012;47.562;18.414;2024-02-28T08:52:22;99224.19;;;12.39;100.00
68193;BME280;55012;47.562;18.414;2024-02-28T08:54:47;99212.56;;;12.38;100.00
68193;BME280;55012;47.562;18.414;2024-02-28T08:57:14;99201.88;;;12.46;100.00
68193;BME280;55012;47.562;18.414;2024-02-28T08:59:39;99199.66;;;12.51;100.00
68193;BME280;55012;47.562;18.414;2024-02-28T09:02:05;99192.78;;;12.57;100.00
68193;BME280;55012;47.562;18.414;2024-02-28T09:04:31;99189.00;;;12.62;100.00
68193;BME280;55012;47.562;18.414;2024-02-28T09:06:57;99175.84;;;12.64;100.00
68193;BME280;55012;47.562;18.414;2024-02-28T09:09:22;99170.78;;;12.62;100.00
68193;BME280;55012;47.562;18.414;2024-02-28T09:11:47;99160.84;;;12.70;100.00
68193;BME280;55012;47.562;18.414;2024-02-28T09:14:13;99153.06;;;12.69;100.00
68193;BME280;55012;47.562;18.414;2024-02-28T09:16:38;99151.13;;;12.69;100.00
68193;BME280;55012;47.562;18.414;2024-02-28T09:19:04;99148.19;;;12.78;100.00
68193;BME280;55012;47.562;18.414;2024-02-28T09:21:30;99144.81;;;12.84;100.00
68193;BME280;55012;47.562;18.414;2024-02-28T09:23:55;99145.34;;;12.93;100.00
68193;BME280;55012;47.562;18.414;2024-02-28T09:26:20;99136.59;;;13.04;100.00
68193;BME280;55012;47.562;18.414;2024-02-28T09:28:46;99129.34;;;13.11;100.00
68193;BME280;55012;47.562;18.414;2024-02-28T09:31:11;99129.47;;;13.18;100.00
68193;BME280;55012;47.562;18.414;2024-02-28T09:33:37;99127.53;;;13.19;100.00
68193;BME280;55012;47.562;18.414;2024-02-28T09:36:03;99122.09;;;13.19;100.00
68193;BME280;55012;47.562;18.414;2024-02-28T09:38:29;99117.97;;;13.25;100.00
68193;BME280;55012;47.562;18.414;2024-02-28T09:40:55;99106.72;;;13.27;100.00
68193;BME280;55012;47.562;18.414;2024-02-28T09:43:40;99111.03;;;13.31;100.00
68193;BME280;55012;47.562;18.414;2024-02-28T09:46:07;99107.91;;;13.29;100.00
68193;BME280;55012;47.562;18.414;2024-02-28T09:48:35;99097.38;;;13.24;100.00
68193;BME280;55012;47.562;18.414;2024-02-28T09:51:03;99096.56;;;13.24;100.00
68193;BME280;55012;47.562;18.414;2024-02-28T09:53:29;99090.31;;;13.19;100.00
68193;BME280;55012;47.562;18.414;2024-02-28T09:55:55;99105.47;;;13.20;100.00
68193;BME280;55012;47.562;18.414;2024-02-28T09:58:20;99102.00;;;13.24;100.00
68193;BME280;55012;47.562;18.414;2024-02-28T10:00:46;99109.91;;;13.32;100.00
68193;BME280;55012;47.562;18.414;2024-02-28T10:03:14;99111.16;;;13.38;100.00
68193;BME280;55012;47.562;18.414;2024-02-28T10:05:42;99108.50;;;13.42;100.00
68193;BME280;55012;47.562;18.414;2024-02-28T10:08:07;99115.59;;;13.50;100.00
68193;BME280;55012;47.562;18.414;2024-02-28T10:10:36;99116.00;;;13.52;100.00
68193;BME280;55012;47.562;18.414;2024-02-28T10:13:02;99115.34;;;13.59;100.00
68193;BME280;55012;47.562;18.414;2024-02-28T10:15:28;99104.19;;;13.67;100.00
68193;BME280;55012;47.562;18.414;2024-02-28T10:17:53;99110.53;;;13.78;100.00
68193;BME280;55012;47.562;18.414;2024-02-28T10:20:18;99100.91;;;13.85;100.00
68193;BME280;55012;47.562;18.414;2024-02-28T10:22:45;99096.34;;;13.92;100.00
68193;BME280;55012;47.562;18.414;2024-02-28T10:25:10;99085.56;;;13.99;100.00
68193;BME280;55012;47.562;18.414;2024-02-28T10:27:35;99087.19;;;14.08;100.00
68193;BME280;55012;47.562;18.414;2024-02-28T10:30:02;99091.59;;;14.19;100.00
68193;BME280;55012;47.562;18.414;2024-02-28T10:32:31;99085.06;;;14.27;100.00
68193;BME280;55012;47.562;18.414;2024-02-28T10:34:59;99086.31;;;14.33;100.00
68193;BME280;55012;47.562;18.414;2024-02-28T10:37:24;99089.47;;;14.39;100.00
68193;BME280;55012;47.562;18.414;2024-02-28T10:39:51;99074.44;;;14.49;100.00
68193;BME280;55012;47.562;18.414;2024-02-28T10:42:21;99080.34;;;14.58;100.00
68193;BME280;55012;47.562;18.414;2024-02-28T10:44:50;99073.78;;;14.63;100.00
68193;BME280;55012;47.562;18.414;2024-02-28T10:47:19;99070.72;;;14.68;100.00
68193;BME280;55012;47.562;18.414;2024-02-28T10:49:44;99067.63;;;14.73;100.00
68193;BME280;55012;47.562;18.414;2024-02-28T10:52:39;99072.34;;;14.76;100.00
68193;BME280;55012;47.562;18.414;2024-02-28T10:55:08;99077.75;;;14.72;100.00
68193;BME280;55012;47.562;18.414;2024-02-28T10:57:36;99087.06;;;14.71;100.00
68193;BME280;55012;47.562;18.414;2024-02-28T11:00:02;99089.47;;;14.76;100.00
68193;BME280;55012;47.562;18.414;2024-02-28T11:02:30;99087.59;;;14.87;100.00
68193;BME280;55012;47.562;18.414;2024-02-28T11:04:56;99079.09;;;14.96;100.00
68193;BME280;55012;47.562;18.414;2024-02-28T11:07:24;99088.56;;;15.09;100.00
68193;BME280;55012;47.562;18.414;2024-02-28T11:09:54;99077.31;;;15.18;100.00
68193;BME280;55012;47.562;18.414;2024-02-28T11:12:27;99076.56;;;15.21;100.00
68193;BME280;55012;47.562;18.414;2024-02-28T11:15:00;99081.72;;;15.33;100.00
68193;BME280;55012;47.562;18.414;2024-02-28T11:17:28;99079.44;;;15.42;100.00
68193;BME280;55012;47.562;18.414;2024-02-28T11:19:54;99077.88;;;15.45;100.00
68193;BME280;55012;47.562;18.414;2024-02-28T11:22:20;99082.59;;;15.52;100.00
68193;BME280;55012;47.562;18.414;2024-02-28T11:24:47;99097.81;;;15.60;100.00
68193;BME280;55012;47.562;18.414;2024-02-28T11:27:12;99083.47;;;15.66;100.00
68193;BME280;55012;47.562;18.414;2024-02-28T11:29:41;99092.47;;;15.74;100.00
68193;BME280;55012;47.562;18.414;2024-02-28T11:32:07;99089.00;;;15.81;100.00
68193;BME280;55012;47.562;18.414;2024-02-28T11:34:34;99088.66;;;15.89;100.00
68193;BME280;55012;47.562;18.414;2024-02-28T11:36:59;99096.44;;;15.94;100.00
68193;BME280;55012;47.562;18.414;2024-02-28T11:39:25;99101.16;;;16.05;100.00
68193;BME280;55012;47.562;18.414;2024-02-28T11:41:51;99104.34;;;16.14;100.00
68193;BME280;55012;47.562;18.414;2024-02-28T11:44:18;99114.91;;;16.22;100.00
68193;BME280;55012;47.562;18.414;2024-02-28T11:46:47;99112.94;;;16.26;100.00
68193;BME280;55012;47.562;18.414;2024-02-28T11:49:13;99119.97;;;16.31;100.00
68193;BME280;55012;47.562;18.414;2024-02-28T11:51:48;99112.19;;;16.33;100.00
68193;BME280;55012;47.562;18.414;2024-02-28T11:54:13;99123.50;;;16.46;100.00
68193;BME280;55012;47.562;18.414;2024-02-28T11:56:39;99130.56;;;16.50;100.00
68193;BME280;55012;47.562;18.414;2024-02-28T11:59:05;99138.75;;;16.54;100.00
68193;BME280;55012;47.562;18.414;2024-02-28T12:01:38;99132.91;;;16.55;100.00
68193;BME280;55012;47.562;18.414;2024-02-28T12:04:04;99137.97;;;16.61;100.00
68193;BME280;55012;47.562;18.414;2024-02-28T12:06:31;99139.56;;;16.65;100.00
68193;BME280;55012;47.562;18.414;2024-02-28T12:08:56;99145.84;;;16.73;100.00
68193;BME280;55012;47.562;18.414;2024-02-28T12:11:24;99143.53;;;16.82;100.00
68193;BME280;55012;47.562;18.414;2024-02-28T12:13:52;99145.88;;;16.91;100.00
68193;BME280;55012;47.562;18.414;2024-02-28T12:16:22;99154.84;;;16.95;100.00
68193;BME280;55012;47.562;18.414;2024-02-28T12:18:47;99154.84;;;17.02;100.00
68193;BME280;55012;47.562;18.414;2024-02-28T12:21:13;99157.59;;;17.09;100.00
68193;BME280;55012;47.562;18.414;2024-02-28T12:23:38;99160.72;;;17.18;100.00
68193;BME280;55012;47.562;18.414;2024-02-28T12:26:04;99166.56;;;17.24;100.00
68193;BME280;55012;47.562;18.414;2024-02-28T12:28:29;99172.41;;;17.26;100.00
68193;BME280;55012;47.562;18.414;2024-02-28T12:30:55;99178.66;;;17.26;100.00
68193;BME280;55012;47.562;18.414;2024-02-28T12:33:21;99180.22;;;17.34;100.00
68193;BME280;55012;47.562;18.414;2024-02-28T12:35:47;99178.28;;;17.38;100.00